sensor_id;sensor_type;location;lat;lon;timestamp;pressure;altitude;pressure_sealevel;temperature;humidity
48404;BME280;34202;52.536;6.042;2023-05-19T00:02:02;102943.46;;;7.90;89.02
48404;BME280;34202;52.536;6.042;2023-05-19T00:07:09;102940.31;;;7.86;89.48
48404;BME280;34202;52.536;6.042;2023-05-19T00:12:11;102942.15;;;7.81;89.80
48404;BME280;34202;52.536;6.042;2023-05-19T00:17:12;102940.63;;;7.79;90.04
48404;BME280;34202;52.536;6.042;2023-05-19T00:22:13;102935.98;;;7.76;90.30
48404;BME280;34202;52.536;6.042;2023-05-19T00:27:14;102939.06;;;7.72;90.83
48404;BME280;34202;52.536;6.042;2023-05-19T00:32:14;102940.17;;;7.67;91.08
48404;BME280;34202;52.536;6.042;2023-05-19T00:37:15;102927.77;;;7.65;91.41
48404;BME280;34202;52.536;6.042;2023-05-19T00:42:15;102920.64;;;7.65;91.65
48404;BME280;34202;52.536;6.042;2023-05-19T00:47:15;102913.65;;;7.63;92.04
48404;BME280;34202;52.536;6.042;2023-05-19T00:52:16;102915.34;;;7.59;92.25
48404;BME280;34202;52.536;6.042;2023-05-19T00:57:16;102914.84;;;7.56;92.43
48404;BME280;34202;52.536;6.042;2023-05-19T01:02:17;102915.60;;;7.51;92.63
48404;BME280;34202;52.536;6.042;2023-05-19T01:07:17;102908.27;;;7.46;92.75
48404;BME280;34202;52.536;6.042;2023-05-19T01:12:19;102909.80;;;7.42;93.04
48404;BME280;34202;52.536;6.042;2023-05-19T01:17:45;102908.20;;;7.39;93.47
48404;BME280;34202;52.536;6.042;2023-05-19T01:23:19;102910.55;;;7.34;93.78
48404;BME280;34202;52.536;6.042;2023-05-19T01:33:45;102897.89;;;7.27;94.55
48404;BME280;34202;52.536;6.042;2023-05-19T01:38:50;102894.44;;;7.24;94.81
48404;BME280;34202;52.536;6.042;2023-05-19T01:43:51;102896.90;;;7.22;95.49
48404;BME280;34202;52.536;6.042;2023-05-19T01:48:53;102890.99;;;7.21;96.06
48404;BME280;34202;52.536;6.042;2023-05-19T01:53:55;102886.73;;;7.19;96.41
48404;BME280;34202;52.536;6.042;2023-05-19T01:59:01;102881.35;;;7.19;96.54
48404;BME280;34202;52.536;6.042;2023-05-19T02:09:58;102882.70;;;7.15;96.53
48404;BME280;34202;52.536;6.042;2023-05-19T02:15:15;102883.86;;;7.10;96.71
48404;BME280;34202;52.536;6.042;2023-05-19T02:20:17;102879.17;;;7.07;97.02
48404;BME280;34202;52.536;6.042;2023-05-19T02:25:17;102878.43;;;7.06;97.44
48404;BME280;34202;52.536;6.042;2023-05-19T02:30:18;102877.40;;;7.07;97.69
48404;BME280;34202;52.536;6.042;2023-05-19T02:35:19;102870.96;;;7.06;97.81
48404;BME280;34202;52.536;6.042;2023-05-19T02:40:20;102869.44;;;7.03;98.17
48404;BME280;34202;52.536;6.042;2023-05-19T02:45:20;102869.40;;;6.99;98.42
48404;BME280;34202;52.536;6.042;2023-05-19T02:50:20;102863.82;;;6.95;98.36
48404;BME280;34202;52.536;6.042;2023-05-19T02:55:21;102858.08;;;6.92;98.64
48404;BME280;34202;52.536;6.042;2023-05-19T03:00:22;102855.67;;;6.89;98.92
48404;BME280;34202;52.536;6.042;2023-05-19T03:05:22;102855.81;;;6.88;99.17
48404;BME280;34202;52.536;6.042;2023-05-19T03:10:22;102852.19;;;6.88;99.45
48404;BME280;34202;52.536;6.042;2023-05-19T03:15:23;102849.55;;;6.87;99.77
48404;BME280;34202;52.536;6.042;2023-05-19T03:20:23;102850.32;;;6.86;99.85
48404;BME280;34202;52.536;6.042;2023-05-19T03:25:23;102853.00;;;6.84;99.98
48404;BME280;34202;52.536;6.042;2023-05-19T03:30:24;102847.05;;;6.83;100.00
48404;BME280;34202;52.536;6.042;2023-05-19T03:35:24;102844.05;;;6.82;100.00
48404;BME280;34202;52.536;6.042;2023-05-19T03:40:25;102845.61;;;6.82;100.00
48404;BME280;34202;52.536;6.042;2023-05-19T03:45:25;102851.27;;;6.81;100.00
48404;BME280;34202;52.536;6.042;2023-05-19T03:50:25;102851.41;;;6.80;100.00
48404;BME280;34202;52.536;6.042;2023-05-19T03:55:28;102853.71;;;6.81;100.00
48404;BME280;34202;52.536;6.042;2023-05-19T04:00:29;102855.55;;;6.83;100.00
48404;BME280;34202;52.536;6.042;2023-05-19T04:05:29;102856.92;;;6.83;100.00
48404;BME280;34202;52.536;6.042;2023-05-19T04:10:29;102856.39;;;6.83;100.00
48404;BME280;34202;52.536;6.042;2023-05-19T04:15:30;102859.41;;;6.84;100.00
48404;BME280;34202;52.536;6.042;2023-05-19T04:20:30;102866.05;;;6.85;100.00
48404;BME280;34202;52.536;6.042;2023-05-19T04:25:31;102864.31;;;6.88;100.00
48404;BME280;34202;52.536;6.042;2023-05-19T04:30:32;102862.91;;;6.91;100.00
48404;BME280;34202;52.536;6.042;2023-05-19T04:35:33;102860.80;;;6.94;100.00
48404;BME280;34202;52.536;6.042;2023-05-19T04:40:34;102857.00;;;6.97;100.00
48404;BME280;34202;52.536;6.042;2023-05-19T04:45:34;102849.97;;;7.02;100.00
48404;BME280;34202;52.536;6.042;2023-05-19T04:50:36;102847.48;;;7.07;100.00
48404;BME280;34202;52.536;6.042;2023-05-19T04:55:37;102852.64;;;7.13;100.00
48404;BME280;34202;52.536;6.042;2023-05-19T05:00:38;102856.39;;;7.18;100.00
48404;BME280;34202;52.536;6.042;2023-05-19T05:05:38;102860.96;;;7.23;100.00
48404;BME280;34202;52.536;6.042;2023-05-19T05:10:38;102863.02;;;7.29;100.00
48404;BME280;34202;52.536;6.042;2023-05-19T05:15:39;102871.00;;;7.33;100.00
48404;BME280;34202;52.536;6.042;2023-05-19T05:20:41;102869.48;;;7.37;100.00
48404;BME280;34202;52.536;6.042;2023-05-19T05:25:43;102866.59;;;7.41;100.00
48404;BME280;34202;52.536;6.042;2023-05-19T05:30:43;102869.24;;;7.49;100.00
48404;BME280;34202;52.536;6.042;2023-05-19T05:35:45;102870.23;;;7.58;100.00
48404;BME280;34202;52.536;6.042;2023-05-19T05:40:45;102868.29;;;7.67;100.00
48404;BME280;34202;52.536;6.042;2023-05-19T05:45:46;102866.88;;;7.77;100.00
48404;BME280;34202;52.536;6.042;2023-05-19T05:50:47;102870.88;;;7.91;100.00
48404;BME280;34202;52.536;6.042;2023-05-19T05:55:48;102866.96;;;8.07;100.00
48404;BME280;34202;52.536;6.042;2023-05-19T06:00:48;102866.52;;;8.26;100.00
48404;BME280;34202;52.536;6.042;2023-05-19T06:05:50;102864.77;;;8.47;100.00
48404;BME280;34202;52.536;6.042;2023-05-19T06:10:50;102865.59;;;8.68;100.00
48404;BME280;34202;52.536;6.042;2023-05-19T06:15:51;102867.73;;;8.88;100.00
48404;BME280;34202;52.536;6.042;2023-05-19T06:20:52;102872.98;;;9.12;100.00
48404;BME280;34202;52.536;6.042;2023-05-19T06:25:52;102873.75;;;9.37;100.00
48404;BME280;34202;52.536;6.042;2023-05-19T06:30:52;102878.02;;;9.63;100.00
48404;BME280;34202;52.536;6.042;2023-05-19T06:35:53;102877.00;;;9.89;100.00
48404;BME280;34202;52.536;6.042;2023-05-19T06:40:53;102877.72;;;10.14;100.00
48404;BME280;34202;52.536;6.042;2023-05-19T06:45:53;102877.10;;;10.37;100.00
48404;BME280;34202;52.536;6.042;2023-05-19T06:50:54;102878.52;;;10.55;100.00
48404;BME280;34202;52.536;6.042;2023-05-19T06:55:55;102877.71;;;10.75;99.98
48404;BME280;34202;52.536;6.042;2023-05-19T07:00:56;102882.23;;;10.93;98.58
48404;BME280;34202;52.536;6.042;2023-05-19T07:05:56;102881.91;;;11.07;97.57
48404;BME280;34202;52.536;6.042;2023-05-19T07:10:57;102879.86;;;11.23;96.76
48404;BME280;34202;52.536;6.042;2023-05-19T07:15:57;102876.79;;;11.39;95.75
48404;BME280;34202;52.536;6.042;2023-05-19T07:20:58;102879.22;;;11.64;95.56
48404;BME280;34202;52.536;6.042;2023-05-19T07:25:58;102880.20;;;11.92;95.41
48404;BME280;34202;52.536;6.042;2023-05-19T07:30:59;102877.89;;;12.22;94.74
48404;BME280;34202;52.536;6.042;2023-05-19T07:36:00;102880.47;;;12.48;93.97
48404;BME280;34202;52.536;6.042;2023-05-19T07:41:01;102883.11;;;12.78;93.32
48404;BME280;34202;52.536;6.042;2023-05-19T07:46:02;102879.55;;;13.04;91.96
48404;BME280;34202;52.536;6.042;2023-05-19T07:51:02;102879.26;;;13.19;89.74
48404;BME280;34202;52.536;6.042;2023-05-19T07:56:03;102881.98;;;13.33;89.10
48404;BME280;34202;52.536;6.042;2023-05-19T08:01:03;102879.18;;;13.59;87.78
48404;BME280;34202;52.536;6.042;2023-05-19T08:06:04;102874.10;;;13.72;85.98
48404;BME280;34202;52.536;6.042;2023-05-19T08:11:04;102867.71;;;13.90;84.88
48404;BME280;34202;52.536;6.042;2023-05-19T08:16:05;102860.43;;;14.00;82.90
48404;BME280;34202;52.536;6.042;2023-05-19T08:21:06;102856.70;;;14.04;81.53
48404;BME280;34202;52.536;6.042;2023-05-19T08:26:06;102853.14;;;14.24;81.75
48404;BME280;34202;52.536;6.042;2023-05-19T08:31:07;102846.65;;;14.47;80.53
48404;BME280;34202;52.536;6.042;2023-05-19T08:36:07;102845.09;;;14.69;79.90
48404;BME280;34202;52.536;6.042;2023-05-19T08:41:08;102839.45;;;14.93;78.32
48404;BME280;34202;52.536;6.042;2023-05-19T08:46:12;102836.48;;;15.03;75.36
48404;BME280;34202;52.536;6.042;2023-05-19T08:51:19;102829.84;;;15.22;75.64
48404;BME280;34202;52.536;6.042;2023-05-19T08:56:23;102825.55;;;15.36;73.88
48404;BME280;34202;52.536;6.042;2023-05-19T09:01:24;102822.46;;;15.31;71.25
48404;BME280;34202;52.536;6.042;2023-05-19T09:06:26;102821.20;;;15.28;71.13
48404;BME280;34202;52.536;6.042;2023-05-19T09:11:26;102820.33;;;15.38;71.14
48404;BME280;34202;52.536;6.042;2023-05-19T09:16:27;102816.83;;;15.59;71.18
48404;BME280;34202;52.536;6.042;2023-05-19T09:21:31;102811.97;;;15.72;69.18
48404;BME280;34202;52.536;6.042;2023-05-19T09:26:54;102806.40;;;15.83;68.21
48404;BME280;34202;52.536;6.042;2023-05-19T09:31:55;102801.45;;;15.93;66.69
48404;BME280;34202;52.536;6.042;2023-05-19T09:36:59;102790.66;;;16.11;66.27
48404;BME280;34202;52.536;6.042;2023-05-19T09:42:03;102787.19;;;16.38;65.61
48404;BME280;34202;52.536;6.042;2023-05-19T09:47:08;102784.57;;;16.81;65.85
48404;BME280;34202;52.536;6.042;2023-05-19T09:57:01;102791.29;;;17.13;61.55
48404;BME280;34202;52.536;6.042;2023-05-19T10:02:02;102789.55;;;17.34;62.42
48404;BME280;34202;52.536;6.042;2023-05-19T10:07:04;102785.44;;;17.66;61.64
48404;BME280;34202;52.536;6.042;2023-05-19T10:12:05;102784.37;;;17.86;59.58
48404;BME280;34202;52.536;6.042;2023-05-19T10:17:06;102776.13;;;17.87;57.84
48404;BME280;34202;52.536;6.042;2023-05-19T10:22:08;102767.25;;;18.05;58.12
48404;BME280;34202;52.536;6.042;2023-05-19T10:27:11;102766.48;;;18.25;57.69
48404;BME280;34202;52.536;6.042;2023-05-19T10:32:14;102757.27;;;18.49;57.03
48404;BME280;34202;52.536;6.042;2023-05-19T10:42:39;102749.48;;;18.83;55.39
48404;BME280;34202;52.536;6.042;2023-05-19T10:47:40;102743.51;;;18.90;53.85
48404;BME280;34202;52.536;6.042;2023-05-19T10:52:41;102741.28;;;18.68;51.62
48404;BME280;34202;52.536;6.042;2023-05-19T10:57:54;102738.06;;;18.52;51.76
48404;BME280;34202;52.536;6.042;2023-05-19T11:03:11;102734.33;;;18.43;51.63
48404;BME280;34202;52.536;6.042;2023-05-19T11:08:12;102731.90;;;18.56;51.16
48404;BME280;34202;52.536;6.042;2023-05-19T11:13:19;102737.02;;;18.57;50.66
48404;BME280;34202;52.536;6.042;2023-05-19T11:18:22;102730.69;;;18.65;50.81
48404;BME280;34202;52.536;6.042;2023-05-19T11:23:24;102724.42;;;18.81;51.07
48404;BME280;34202;52.536;6.042;2023-05-19T11:28:25;102729.06;;;19.08;51.32
48404;BME280;34202;52.536;6.042;2023-05-19T11:33:28;102727.14;;;19.40;51.42
48404;BME280;34202;52.536;6.042;2023-05-19T11:38:32;102719.52;;;19.66;50.11
48404;BME280;34202;52.536;6.042;2023-05-19T11:43:33;102715.29;;;19.63;48.33
48404;BME280;34202;52.536;6.042;2023-05-19T11:48:34;102707.89;;;19.59;47.77
48404;BME280;34202;52.536;6.042;2023-05-19T11:53:36;102708.05;;;19.68;47.49
48404;BME280;34202;52.536;6.042;2023-05-19T11:58:37;102703.98;;;19.64;46.59
48404;BME280;34202;52.536;6.042;2023-05-19T12:03:38;102704.34;;;19.73;46.64
48404;BME280;34202;52.536;6.042;2023-05-19T12:08:38;102696.73;;;19.84;46.98
48404;BME280;34202;52.536;6.042;2023-05-19T12:13:38;102697.91;;;20.06;46.74
48404;BME280;34202;52.536;6.042;2023-05-19T12:18:39;102695.38;;;20.20;46.39
48404;BME280;34202;52.536;6.042;2023-05-19T12:23:40;102689.36;;;20.23;45.64
48404;BME280;34202;52.536;6.042;2023-05-19T12:28:44;102690.05;;;20.27;45.47
48404;BME280;34202;52.536;6.042;2023-05-19T12:33:47;102695.65;;;20.38;45.54
48404;BME280;34202;52.536;6.042;2023-05-19T12:38:54;102692.86;;;20.31;44.52
48404;BME280;34202;52.536;6.042;2023-05-19T12:43:54;102689.32;;;20.33;45.24
48404;BME280;34202;52.536;6.042;2023-05-19T12:48:57;102682.15;;;20.51;45.77
48404;BME280;34202;52.536;6.042;2023-05-19T12:54:01;102669.72;;;20.60;44.88
48404;BME280;34202;52.536;6.042;2023-05-19T12:59:01;102658.52;;;20.72;44.83
48404;BME280;34202;52.536;6.042;2023-05-19T13:04:02;102659.94;;;20.74;44.13
48404;BME280;34202;52.536;6.042;2023-05-19T13:09:02;102655.70;;;20.73;44.17
48404;BME280;34202;52.536;6.042;2023-05-19T13:14:03;102650.61;;;20.66;43.54
48404;BME280;34202;52.536;6.042;2023-05-19T13:19:03;102654.13;;;20.67;43.20
48404;BME280;34202;52.536;6.042;2023-05-19T13:24:04;102647.59;;;20.67;43.39
48404;BME280;34202;52.536;6.042;2023-05-19T13:29:05;102637.64;;;20.74;43.13
48404;BME280;34202;52.536;6.042;2023-05-19T13:34:05;102635.89;;;20.72;42.56
48404;BME280;34202;52.536;6.042;2023-05-19T13:39:06;102636.55;;;20.78;42.67
48404;BME280;34202;52.536;6.042;2023-05-19T13:44:06;102632.82;;;20.80;42.29
48404;BME280;34202;52.536;6.042;2023-05-19T13:49:06;102634.39;;;20.82;42.38
48404;BME280;34202;52.536;6.042;2023-05-19T13:54:07;102624.95;;;20.88;41.91
48404;BME280;34202;52.536;6.042;2023-05-19T13:59:07;102615.52;;;20.77;41.54
48404;BME280;34202;52.536;6.042;2023-05-19T14:04:08;102618.19;;;20.74;41.87
48404;BME280;34202;52.536;6.042;2023-05-19T14:09:09;102620.35;;;20.89;42.04
48404;BME280;34202;52.536;6.042;2023-05-19T14:14:10;102617.97;;;20.99;41.77
48404;BME280;34202;52.536;6.042;2023-05-19T14:19:10;102608.49;;;21.11;41.70
48404;BME280;34202;52.536;6.042;2023-05-19T14:24:11;102607.19;;;21.18;41.64
48404;BME280;34202;52.536;6.042;2023-05-19T14:29:11;102601.68;;;21.19;41.26
48404;BME280;34202;52.536;6.042;2023-05-19T14:34:11;102599.56;;;21.18;40.96
48404;BME280;34202;52.536;6.042;2023-05-19T14:39:16;102592.16;;;21.16;40.58
48404;BME280;34202;52.536;6.042;2023-05-19T14:44:17;102592.64;;;21.20;41.04
48404;BME280;34202;52.536;6.042;2023-05-19T14:49:18;102585.17;;;21.24;41.16
48404;BME280;34202;52.536;6.042;2023-05-19T14:54:18;102575.93;;;21.27;41.15
48404;BME280;34202;52.536;6.042;2023-05-19T14:59:18;102572.78;;;21.23;40.56
48404;BME280;34202;52.536;6.042;2023-05-19T15:04:20;102576.06;;;21.14;40.08
48404;BME280;34202;52.536;6.042;2023-05-19T15:09:21;102577.45;;;20.99;40.09
48404;BME280;34202;52.536;6.042;2023-05-19T15:14:21;102579.77;;;20.75;39.82
48404;BME280;34202;52.536;6.042;2023-05-19T15:19:21;102573.74;;;20.49;39.82
48404;BME280;34202;52.536;6.042;2023-05-19T15:24:22;102571.89;;;20.36;39.83
48404;BME280;34202;52.536;6.042;2023-05-19T15:29:23;102562.36;;;20.35;40.20
48404;BME280;34202;52.536;6.042;2023-05-19T15:34:23;102564.46;;;20.38;40.18
48404;BME280;34202;52.536;6.042;2023-05-19T15:39:24;102567.55;;;20.25;39.97
48404;BME280;34202;52.536;6.042;2023-05-19T15:44:24;102565.73;;;20.02;40.34
48404;BME280;34202;52.536;6.042;2023-05-19T15:49:25;102565.95;;;19.94;40.94
48404;BME280;34202;52.536;6.042;2023-05-19T15:54:25;102563.33;;;19.87;40.77
48404;BME280;34202;52.536;6.042;2023-05-19T15:59:25;102560.16;;;19.85;41.04
48404;BME280;34202;52.536;6.042;2023-05-19T16:04:26;102553.05;;;19.95;41.01
48404;BME280;34202;52.536;6.042;2023-05-19T16:09:26;102558.32;;;20.03;40.72
48404;BME280;34202;52.536;6.042;2023-05-19T16:14:26;102557.77;;;20.04;40.76
48404;BME280;34202;52.536;6.042;2023-05-19T16:19:30;102551.07;;;20.02;40.60
48404;BME280;34202;52.536;6.042;2023-05-19T16:24:30;102551.61;;;19.97;40.61
48404;BME280;34202;52.536;6.042;2023-05-19T16:29:30;102542.11;;;19.95;40.44
48404;BME280;34202;52.536;6.042;2023-05-19T16:34:31;102539.45;;;19.95;40.34
48404;BME280;34202;52.536;6.042;2023-05-19T16:39:31;102537.74;;;19.80;40.04
48404;BME280;34202;52.536;6.042;2023-05-19T16:44:32;102539.91;;;19.64;40.37
48404;BME280;34202;52.536;6.042;2023-05-19T16:49:32;102544.69;;;19.59;40.58
48404;BME280;34202;52.536;6.042;2023-05-19T16:54:33;102544.37;;;19.53;40.57
48404;BME280;34202;52.536;6.042;2023-05-19T16:59:34;102547.05;;;19.41;40.12
48404;BME280;34202;52.536;6.042;2023-05-19T17:04:34;102542.69;;;19.27;40.05
48404;BME280;34202;52.536;6.042;2023-05-19T17:09:35;102547.29;;;19.20;40.69
48404;BME280;34202;52.536;6.042;2023-05-19T17:14:35;102550.82;;;19.14;41.06
48404;BME280;34202;52.536;6.042;2023-05-19T17:19:36;102549.41;;;19.09;41.00
48404;BME280;34202;52.536;6.042;2023-05-19T17:24:36;102557.18;;;19.04;40.88
48404;BME280;34202;52.536;6.042;2023-05-19T17:29:37;102555.61;;;18.96;41.22
48404;BME280;34202;52.536;6.042;2023-05-19T17:34:37;102560.21;;;18.90;41.92
48404;BME280;34202;52.536;6.042;2023-05-19T17:39:38;102555.28;;;18.88;42.23
48404;BME280;34202;52.536;6.042;2023-05-19T17:44:38;102556.84;;;18.86;42.14
48404;BME280;34202;52.536;6.042;2023-05-19T17:49:39;102560.73;;;18.80;42.16
48404;BME280;34202;52.536;6.042;2023-05-19T17:54:39;102568.82;;;18.73;41.96
48404;BME280;34202;52.536;6.042;2023-05-19T17:59:40;102565.29;;;18.62;42.35
48404;BME280;34202;52.536;6.042;2023-05-19T18:04:41;102569.52;;;18.55;42.63
48404;BME280;34202;52.536;6.042;2023-05-19T18:09:43;102574.96;;;18.43;42.89
48404;BME280;34202;52.536;6.042;2023-05-19T18:14:45;102570.19;;;18.31;43.34
48404;BME280;34202;52.536;6.042;2023-05-19T18:19:46;102574.38;;;18.20;43.71
48404;BME280;34202;52.536;6.042;2023-05-19T18:24:46;102570.14;;;18.10;44.00
48404;BME280;34202;52.536;6.042;2023-05-19T18:29:47;102575.92;;;18.02;44.20
48404;BME280;34202;52.536;6.042;2023-05-19T18:34:47;102583.63;;;17.90;44.33
48404;BME280;34202;52.536;6.042;2023-05-19T18:39:47;102587.58;;;17.78;44.56
48404;BME280;34202;52.536;6.042;2023-05-19T18:44:48;102587.89;;;17.66;45.07
48404;BME280;34202;52.536;6.042;2023-05-19T18:49:49;102591.33;;;17.52;45.63
48404;BME280;34202;52.536;6.042;2023-05-19T18:54:50;102595.47;;;17.37;46.25
48404;BME280;34202;52.536;6.042;2023-05-19T18:59:50;102596.08;;;17.23;46.80
48404;BME280;34202;52.536;6.042;2023-05-19T19:04:51;102597.74;;;17.10;46.97
48404;BME280;34202;52.536;6.042;2023-05-19T19:09:51;102604.33;;;16.97;47.18
48404;BME280;34202;52.536;6.042;2023-05-19T19:14:52;102604.91;;;16.85;47.53
48404;BME280;34202;52.536;6.042;2023-05-19T19:19:52;102606.15;;;16.69;48.15
48404;BME280;34202;52.536;6.042;2023-05-19T19:24:52;102611.45;;;16.54;49.14
48404;BME280;34202;52.536;6.042;2023-05-19T19:29:53;102617.14;;;16.42;50.08
48404;BME280;34202;52.536;6.042;2023-05-19T19:34:53;102620.85;;;16.29;50.74
48404;BME280;34202;52.536;6.042;2023-05-19T19:39:53;102630.04;;;16.18;51.26
48404;BME280;34202;52.536;6.042;2023-05-19T19:44:54;102637.61;;;16.06;52.01
48404;BME280;34202;52.536;6.042;2023-05-19T19:49:55;102643.92;;;15.91;52.93
48404;BME280;34202;52.536;6.042;2023-05-19T19:54:55;102648.11;;;15.77;53.67
48404;BME280;34202;52.536;6.042;2023-05-19T19:59:56;102659.45;;;15.61;54.64
48404;BME280;34202;52.536;6.042;2023-05-19T20:05:02;102667.14;;;15.48;55.56
48404;BME280;34202;52.536;6.042;2023-05-19T20:10:03;102673.28;;;15.36;56.57
48404;BME280;34202;52.536;6.042;2023-05-19T20:15:04;102680.10;;;15.24;57.14
48404;BME280;34202;52.536;6.042;2023-05-19T20:20:05;102679.91;;;15.13;57.79
48404;BME280;34202;52.536;6.042;2023-05-19T20:25:09;102679.02;;;15.02;58.48
48404;BME280;34202;52.536;6.042;2023-05-19T20:30:09;102685.70;;;14.93;59.36
48404;BME280;34202;52.536;6.042;2023-05-19T20:35:10;102691.11;;;14.82;60.00
48404;BME280;34202;52.536;6.042;2023-05-19T20:40:11;102690.72;;;14.71;60.13
48404;BME280;34202;52.536;6.042;2023-05-19T20:45:11;102692.38;;;14.58;60.35
48404;BME280;34202;52.536;6.042;2023-05-19T20:50:12;102694.69;;;14.42;60.97
48404;BME280;34202;52.536;6.042;2023-05-19T20:55:12;102698.95;;;14.29;61.66
48404;BME280;34202;52.536;6.042;2023-05-19T21:00:13;102699.73;;;14.16;62.17
48404;BME280;34202;52.536;6.042;2023-05-19T21:05:13;102708.13;;;14.08;62.20
48404;BME280;34202;52.536;6.042;2023-05-19T21:10:14;102709.70;;;13.99;62.19
48404;BME280;34202;52.536;6.042;2023-05-19T21:15:16;102707.04;;;13.90;62.50
48404;BME280;34202;52.536;6.042;2023-05-19T21:20:17;102707.23;;;13.76;62.86
48404;BME280;34202;52.536;6.042;2023-05-19T21:25:17;102706.21;;;13.62;63.22
48404;BME280;34202;52.536;6.042;2023-05-19T21:30:17;102704.14;;;13.48;63.62
48404;BME280;34202;52.536;6.042;2023-05-19T21:35:18;102711.55;;;13.37;64.29
48404;BME280;34202;52.536;6.042;2023-05-19T21:40:18;102712.45;;;13.25;64.55
48404;BME280;34202;52.536;6.042;2023-05-19T21:45:19;102715.87;;;13.16;64.71
48404;BME280;34202;52.536;6.042;2023-05-19T21:50:19;102717.39;;;13.07;65.12
48404;BME280;34202;52.536;6.042;2023-05-19T21:55:19;102721.69;;;12.97;65.56
48404;BME280;34202;52.536;6.042;2023-05-19T22:00:21;102729.63;;;12.87;66.13
48404;BME280;34202;52.536;6.042;2023-05-19T22:05:21;102729.55;;;12.78;66.50
48404;BME280;34202;52.536;6.042;2023-05-19T22:10:22;102729.27;;;12.68;66.83
48404;BME280;34202;52.536;6.042;2023-05-19T22:15:22;102727.45;;;12.59;66.96
48404;BME280;34202;52.536;6.042;2023-05-19T22:20:23;102725.02;;;12.47;67.14
48404;BME280;34202;52.536;6.042;2023-05-19T22:25:23;102725.27;;;12.38;67.31
48404;BME280;34202;52.536;6.042;2023-05-19T22:30:24;102730.02;;;12.28;67.68
48404;BME280;34202;52.536;6.042;2023-05-19T22:35:24;102730.52;;;12.15;68.13
48404;BME280;34202;52.536;6.042;2023-05-19T22:40:25;102725.94;;;12.02;68.55
48404;BME280;34202;52.536;6.042;2023-05-19T22:45:25;102716.56;;;11.92;69.01
48404;BME280;34202;52.536;6.042;2023-05-19T22:50:26;102710.63;;;11.81;69.56
48404;BME280;34202;52.536;6.042;2023-05-19T22:55:26;102718.67;;;11.71;69.93
48404;BME280;34202;52.536;6.042;2023-05-19T23:00:26;102721.75;;;11.64;70.41
48404;BME280;34202;52.536;6.042;2023-05-19T23:05:27;102719.79;;;11.57;70.83
48404;BME280;34202;52.536;6.042;2023-05-19T23:10:27;102721.64;;;11.50;71.25
48404;BME280;34202;52.536;6.042;2023-05-19T23:15:27;102719.09;;;11.42;71.77
48404;BME280;34202;52.536;6.042;2023-05-19T23:20:28;102720.60;;;11.34;72.30
48404;BME280;34202;52.536;6.042;2023-05-19T23:25:28;102720.89;;;11.28;72.94
48404;BME280;34202;52.536;6.042;2023-05-19T23:30:29;102720.41;;;11.24;73.53
48404;BME280;34202;52.536;6.042;2023-05-19T23:35:29;102720.80;;;11.19;74.22
48404;BME280;34202;52.536;6.042;2023-05-19T23:40:30;102718.85;;;11.14;74.72
48404;BME280;34202;52.536;6.042;2023-05-19T23:45:30;102716.11;;;11.10;75.33
48404;BME280;34202;52.536;6.042;2023-05-19T23:50:31;102712.27;;;11.05;76.02
48404;BME280;34202;52.536;6.042;2023-05-19T23:55:31;102709.98;;;10.99;76.56
